Time;durP1;ratioP1;P1;durP2;ratioP2;P2;SDS_P1;SDS_P2;PMS_P1;PMS_P2;Temp;Humidity;BMP_temperature;BMP_pressure;BME280_temperature;BME280_humidity;BME280_pressure;Samples;Min_cycle;Max_cycle;Signal;HPM_P1;HPM_P2
2019/09/04 00:00:31;;;;;;;6.7;4.3;;;;;;;15.26;73.21289;966.3063;;;;
2019/09/04 00:02:46;;;;;;;6.2;4.2;;;;;;;15.17;73.41895;966.293;;;;
2019/09/04 00:05:11;;;;;;;7.1;4.4;;;;;;;15.08;72.96191;966.2639;;;;
2019/09/04 00:07:36;;;;;;;7.4;4.8;;;;;;;14.92;74.11914;966.2509;;;;
2019/09/04 00:10:01;;;;;;;6.8;4.5;;;;;;;14.93;74.2041;966.2144;;;;
2019/09/04 00:12:26;;;;;;;6.4;4.6;;;;;;;15.09;73.82422;966.2598;;;;
2019/09/04 00:14:52;;;;;;;8.4;5;;;;;;;14.75;74.73145;966.139;;;;
2019/09/04 00:17:17;;;;;;;7.8;4.5;;;;;;;14.78;75.375;966.2166;;;;
2019/09/04 00:19:42;;;;;;;6.4;4.5;;;;;;;14.73;75.00488;966.1813;;;;
2019/09/04 00:22:07;;;;;;;6.2;4.6;;;;;;;14.72;75.64453;966.1591;;;;
2019/09/04 00:24:32;;;;;;;6.8;4.8;;;;;;;14.76;74.25488;966.1005;;;;
2019/09/04 00:26:57;;;;;;;8;4.5;;;;;;;14.65;74.59766;966.0513;;;;
2019/09/04 00:29:22;;;;;;;7.1;4.6;;;;;;;14.6;74.34473;966.0934;;;;
2019/09/04 00:31:47;;;;;;;6.6;4.6;;;;;;;14.57;74.9209;966.0619;;;;
2019/09/04 00:34:13;;;;;;;5.5;4.7;;;;;;;14.65;73.79492;966.0636;;;;
2019/09/04 00:36:38;;;;;;;6.7;5;;;;;;;14.52;75.22559;966.0635;;;;
2019/09/04 00:39:04;;;;;;;5.6;4.4;;;;;;;14.64;73.71387;966.0086;;;;
2019/09/04 00:41:29;;;;;;;7.9;4.5;;;;;;;14.72;73.17969;965.9646;;;;
2019/09/04 00:43:54;;;;;;;5.8;4.4;;;;;;;14.86;72.71582;966.0041;;;;
2019/09/04 00:46:19;;;;;;;5.6;4.2;;;;;;;14.65;73.56445;965.8889;;;;
2019/09/04 00:48:45;;;;;;;5.7;4.7;;;;;;;14.56;74.02344;965.8967;;;;
2019/09/04 00:51:10;;;;;;;5.1;4.4;;;;;;;14.58;73.5752;965.8766;;;;
2019/09/04 00:53:35;;;;;;;6.5;4.4;;;;;;;14.66;72.53027;965.8597;;;;
2019/09/04 00:56:00;;;;;;;5.6;4.6;;;;;;;14.54;73.34863;965.808;;;;
2019/09/04 00:58:25;;;;;;;6.3;4.5;;;;;;;14.51;73.00586;965.7712;;;;
2019/09/04 01:00:50;;;;;;;6.1;4.4;;;;;;;14.49;73.76953;965.793;;;;
2019/09/04 01:03:16;;;;;;;5.5;4.4;;;;;;;14.6;72.99707;965.7875;;;;
2019/09/04 01:05:41;;;;;;;5.1;4.2;;;;;;;14.55;72.83789;965.7072;;;;
2019/09/04 01:08:06;;;;;;;6.1;4.4;;;;;;;14.66;72.64648;965.7075;;;;
2019/09/04 01:10:31;;;;;;;5.6;4.6;;;;;;;14.63;72.79297;965.6804;;;;
2019/09/04 01:12:56;;;;;;;4.7;3.9;;;;;;;14.51;72.08789;965.6687;;;;
2019/09/04 01:15:21;;;;;;;5.3;4.1;;;;;;;14.44;72.59863;965.6609;;;;
2019/09/04 01:17:46;;;;;;;5.7;4.2;;;;;;;14.52;73.49512;965.6222;;;;
2019/09/04 01:20:12;;;;;;;6.4;4.1;;;;;;;14.53;72.1377;965.6091;;;;
2019/09/04 01:22:37;;;;;;;7.6;4.1;;;;;;;14.56;72.38574;965.5784;;;;
2019/09/04 01:25:02;;;;;;;5.2;4;;;;;;;14.53;72.10254;965.5878;;;;
2019/09/04 01:27:27;;;;;;;6.2;4.6;;;;;;;14.37;73.21387;965.6141;;;;
2019/09/04 01:29:52;;;;;;;4.9;4.2;;;;;;;14.41;72.62891;965.5784;;;;
2019/09/04 01:32:17;;;;;;;4.4;3.8;;;;;;;14.37;72.67969;965.5378;;;;
2019/09/04 01:34:43;;;;;;;5.1;3.9;;;;;;;14.31;72.85645;965.56;;;;
2019/09/04 01:37:08;;;;;;;4.5;4.1;;;;;;;14.37;72.44727;965.5567;;;;
2019/09/04 01:39:33;;;;;;;5.7;4;;;;;;;14.32;73.27637;965.4952;;;;
2019/09/04 01:41:59;;;;;;;5.4;4.2;;;;;;;14.24;73.50488;965.508;;;;
2019/09/04 01:44:24;;;;;;;4.4;4;;;;;;;14.34;72.39648;965.4727;;;;
2019/09/04 01:46:49;;;;;;;6.7;4.8;;;;;;;14.25;73.50781;965.4313;;;;
2019/09/04 01:49:14;;;;;;;4.6;4.1;;;;;;;14.26;73.08008;965.4214;;;;
2019/09/04 01:51:39;;;;;;;4.2;3.8;;;;;;;14.26;73.46289;965.3599;;;;
2019/09/04 01:54:04;;;;;;;5.5;4.4;;;;;;;14.19;74.1123;965.2902;;;;
2019/09/04 01:56:30;;;;;;;6;4.2;;;;;;;14.24;73.63379;965.2828;;;;
2019/09/04 02:01:02;;;;;;;5.6;4.2;;;;;;;14.22;74.5;965.2972;;;;
2019/09/04 02:03:27;;;;;;;5;4.2;;;;;;;14.12;75.00684;965.2737;;;;
2019/09/04 02:05:52;;;;;;;5.2;4.3;;;;;;;14.2;73.86035;965.2623;;;;
2019/09/04 02:08:17;;;;;;;5.4;4.4;;;;;;;14.21;74.42871;965.2307;;;;
2019/09/04 02:10:42;;;;;;;5.7;4.7;;;;;;;14.26;73.89258;965.1788;;;;
2019/09/04 02:13:07;;;;;;;6.1;4.7;;;;;;;14.22;73.96777;965.1505;;;;
2019/09/04 02:15:32;;;;;;;6.6;4.9;;;;;;;14.22;74.4668;965.1299;;;;
2019/09/04 02:17:57;;;;;;;5.4;4.8;;;;;;;14.13;75.28516;965.0778;;;;
2019/09/04 02:20:23;;;;;;;8.7;5.3;;;;;;;13.92;76.16602;965.0633;;;;
2019/09/04 02:22:48;;;;;;;7;5.1;;;;;;;13.81;75.69531;965.0706;;;;
2019/09/04 02:25:13;;;;;;;5.9;4.9;;;;;;;13.85;77.03516;964.9981;;;;
2019/09/04 02:27:38;;;;;;;5.7;5;;;;;;;13.91;76.33984;964.9674;;;;
2019/09/04 02:30:03;;;;;;;6.6;4.6;;;;;;;13.88;76.35645;964.9227;;;;
2019/09/04 02:32:28;;;;;;;5.4;4.8;;;;;;;13.86;76.36328;964.9256;;;;
2019/09/04 02:34:53;;;;;;;5.5;5;;;;;;;13.83;76.21973;964.9128;;;;
2019/09/04 02:37:18;;;;;;;5.5;4.9;;;;;;;13.71;76.54688;964.9012;;;;
2019/09/04 02:39:43;;;;;;;6.6;5.1;;;;;;;13.69;76.73926;964.8591;;;;
2019/09/04 02:42:08;;;;;;;5.8;5.1;;;;;;;13.91;75.94434;964.8077;;;;
2019/09/04 02:44:34;;;;;;;5.4;4.7;;;;;;;13.93;75.55469;964.8413;;;;
2019/09/04 02:46:59;;;;;;;5.3;4.7;;;;;;;13.85;76.26953;964.7355;;;;
2019/09/04 02:49:24;;;;;;;6;5.1;;;;;;;13.81;76.51855;964.7216;;;;
2019/09/04 02:51:49;;;;;;;6.3;5.2;;;;;;;13.84;76.10742;964.6844;;;;
2019/09/04 02:54:14;;;;;;;5.4;4.8;;;;;;;13.89;76.31152;964.7425;;;;
2019/09/04 02:56:39;;;;;;;5.8;5.2;;;;;;;13.76;76.34668;964.7117;;;;
2019/09/04 02:59:04;;;;;;;6.6;5.1;;;;;;;13.67;76.22461;964.7202;;;;
2019/09/04 03:01:29;;;;;;;6.1;5.3;;;;;;;13.68;76.37891;964.6886;;;;
2019/09/04 03:03:54;;;;;;;5.1;4.6;;;;;;;13.79;76.07422;964.7109;;;;
2019/09/04 03:06:19;;;;;;;5.8;5.3;;;;;;;13.74;76.50586;964.687;;;;
2019/09/04 03:08:44;;;;;;;5.4;4.9;;;;;;;13.68;76.41309;964.6305;;;;
2019/09/04 03:11:09;;;;;;;5.8;4.8;;;;;;;13.63;77.12402;964.6099;;;;
2019/09/04 03:13:35;;;;;;;6.8;5.2;;;;;;;13.56;77.01855;964.6032;;;;
2019/09/04 03:16:00;;;;;;;7.2;4.9;;;;;;;13.67;76.53906;964.5993;;;;
2019/09/04 03:18:25;;;;;;;6.5;5.2;;;;;;;13.66;77.02441;964.5726;;;;
2019/09/04 03:20:50;;;;;;;5.4;4.9;;;;;;;13.72;76.4082;964.5859;;;;
2019/09/04 03:23:15;;;;;;;5.5;4.9;;;;;;;13.62;77.24805;964.5762;;;;
2019/09/04 03:25:40;;;;;;;5.5;4.7;;;;;;;13.47;77.41992;964.5404;;;;
2019/09/04 03:28:05;;;;;;;5.3;4.7;;;;;;;13.5;77.25098;964.5662;;;;
2019/09/04 03:30:30;;;;;;;5.9;4.7;;;;;;;13.57;77.0332;964.4846;;;;
2019/09/04 03:32:55;;;;;;;5.7;5.1;;;;;;;13.43;77.57422;964.476;;;;
2019/09/04 03:35:21;;;;;;;7.2;4.8;;;;;;;13.55;77.11133;964.4631;;;;
2019/09/04 03:37:46;;;;;;;7.5;5.4;;;;;;;13.42;78.38379;964.4683;;;;
2019/09/04 03:40:11;;;;;;;6.6;5.1;;;;;;;13.48;78.62695;964.4545;;;;
2019/09/04 03:42:36;;;;;;;6;4.8;;;;;;;13.41;77.87109;964.3953;;;;
2019/09/04 03:45:01;;;;;;;6.5;4.7;;;;;;;13.57;76.91797;964.3928;;;;
2019/09/04 03:47:26;;;;;;;6.4;5;;;;;;;13.58;77.2666;964.3433;;;;
2019/09/04 03:49:51;;;;;;;5.8;5.2;;;;;;;13.39;77.70508;964.2819;;;;
2019/09/04 03:52:16;;;;;;;6.1;5.5;;;;;;;13.11;79.02344;964.2936;;;;
2019/09/04 03:54:41;;;;;;;6.8;5.4;;;;;;;13.18;78.39746;964.3134;;;;
2019/09/04 03:57:06;;;;;;;7.1;5.4;;;;;;;13.22;78.35938;964.2935;;;;
2019/09/04 03:59:31;;;;;;;7.1;5.1;;;;;;;13.28;77.57227;964.2755;;;;
2019/09/04 04:02:26;;;;;;;6.6;5;;;;;;;13.32;77.61328;964.2719;;;;
2019/09/04 04:04:51;;;;;;;6.6;5.1;;;;;;;13.14;78.82031;964.3398;;;;
2019/09/04 04:07:16;;;;;;;7;4.8;;;;;;;13.22;78.98535;964.3091;;;;
2019/09/04 04:09:42;;;;;;;7.8;4.9;;;;;;;13.21;78.20801;964.3254;;;;
2019/09/04 04:12:07;;;;;;;6.6;5.1;;;;;;;13.24;78.90918;964.3644;;;;
2019/09/04 04:14:32;;;;;;;7;4.4;;;;;;;13.19;77.86816;964.3134;;;;
2019/09/04 04:16:57;;;;;;;6.3;4.6;;;;;;;13.19;77.90137;964.3127;;;;
2019/09/04 04:19:22;;;;;;;6.3;5;;;;;;;13.15;78.4043;964.29;;;;
2019/09/04 04:21:47;;;;;;;8.3;4.7;;;;;;;13.11;78.03906;964.3231;;;;
2019/09/04 04:24:12;;;;;;;5.6;4.6;;;;;;;13.21;78.04395;964.2836;;;;
2019/09/04 04:26:37;;;;;;;6.7;4.7;;;;;;;13.06;78.79395;964.2034;;;;
2019/09/04 04:29:02;;;;;;;7;4.5;;;;;;;13.08;78.77539;964.23;;;;
2019/09/04 04:31:27;;;;;;;5.1;4.3;;;;;;;13.24;78.81445;964.2162;;;;
2019/09/04 04:33:52;;;;;;;6.8;4.2;;;;;;;13.13;78.76172;964.199;;;;
2019/09/04 04:36:17;;;;;;;5.4;4.1;;;;;;;13.04;78.86035;964.1436;;;;
2019/09/04 04:38:43;;;;;;;6.9;4.2;;;;;;;13.04;79.53125;964.1702;;;;
2019/09/04 04:41:18;;;;;;;6.3;4.1;;;;;;;13.15;78.6709;964.1525;;;;
2019/09/04 04:43:43;;;;;;;5.6;4.1;;;;;;;13.25;78.06348;964.1713;;;;
2019/09/04 04:46:09;;;;;;;6.6;4.2;;;;;;;13.19;78.1582;964.1926;;;;
2019/09/04 04:48:34;;;;;;;10;4.3;;;;;;;13.06;79.01367;964.1519;;;;
2019/09/04 04:50:59;;;;;;;7.6;4.4;;;;;;;13;79.5459;964.1361;;;;
2019/09/04 04:53:24;;;;;;;7;4.3;;;;;;;13.17;78.65137;964.1072;;;;
2019/09/04 04:55:49;;;;;;;6.1;4.5;;;;;;;13.15;78.74023;964.0683;;;;
2019/09/04 04:58:14;;;;;;;5.4;4.3;;;;;;;13.18;78.74512;964.1269;;;;
2019/09/04 05:00:39;;;;;;;6.6;4.5;;;;;;;13.06;79.17578;964.1224;;;;
2019/09/04 05:03:04;;;;;;;6.2;4.8;;;;;;;12.87;79.99609;964.0792;;;;
2019/09/04 05:05:29;;;;;;;5.9;4.8;;;;;;;13.08;79.45703;964.1301;;;;
2019/09/04 05:07:55;;;;;;;5.8;4.3;;;;;;;13.16;79.16016;964.1841;;;;
2019/09/04 05:10:20;;;;;;;6.3;4.5;;;;;;;13.18;78.83984;964.1563;;;;
2019/09/04 05:12:45;;;;;;;6.5;4.5;;;;;;;13.21;79.53906;964.1764;;;;
2019/09/04 05:15:10;;;;;;;7.2;4.9;;;;;;;13.28;78.90332;964.2117;;;;
2019/09/04 05:17:35;;;;;;;6;4.8;;;;;;;13.2;79.34082;964.1927;;;;
2019/09/04 05:20:00;;;;;;;5.6;4.5;;;;;;;13.36;78.56934;964.1348;;;;
2019/09/04 05:22:25;;;;;;;5.5;4.8;;;;;;;13.42;78.24414;964.1833;;;;
2019/09/04 05:24:50;;;;;;;8.4;5;;;;;;;13.24;78.39941;964.1655;;;;
2019/09/04 05:27:15;;;;;;;7.7;4.9;;;;;;;13.38;78.68848;964.1566;;;;
2019/09/04 05:29:40;;;;;;;9.1;5.4;;;;;;;13.39;78.78223;964.1501;;;;
2019/09/04 05:32:06;;;;;;;8.3;5;;;;;;;13.53;78.2998;964.0917;;;;
2019/09/04 05:34:31;;;;;;;8.5;5.1;;;;;;;13.48;78.83496;964.1082;;;;
2019/09/04 05:36:56;;;;;;;7.1;5;;;;;;;13.35;78.75293;964.0972;;;;
2019/09/04 05:39:21;;;;;;;8.9;5.1;;;;;;;13.48;78.10547;964.131;;;;
2019/09/04 05:41:46;;;;;;;6.9;4.8;;;;;;;13.42;79.27734;964.0516;;;;
2019/09/04 05:44:11;;;;;;;8.4;5.1;;;;;;;13.33;79.62793;964.0804;;;;
2019/09/04 05:46:36;;;;;;;7.5;5.4;;;;;;;13.31;79.77734;964.1164;;;;
2019/09/04 05:49:01;;;;;;;7.8;5.4;;;;;;;13.35;80.06152;964.0694;;;;
2019/09/04 05:51:26;;;;;;;9.3;5.4;;;;;;;13.41;79.00879;964.0736;;;;
2019/09/04 05:53:52;;;;;;;6.7;5;;;;;;;13.52;79.49023;964.1258;;;;
2019/09/04 05:56:17;;;;;;;7.7;5.4;;;;;;;13.59;79.07617;964.1197;;;;
2019/09/04 05:58:42;;;;;;;8.7;5.5;;;;;;;13.47;80.22363;964.1024;;;;
2019/09/04 06:01:07;;;;;;;9.7;5.4;;;;;;;13.45;79.93066;964.092;;;;
2019/09/04 06:03:32;;;;;;;8.3;4.8;;;;;;;13.43;80.07715;964.0638;;;;
2019/09/04 06:05:57;;;;;;;8.1;5.2;;;;;;;13.42;79.97266;964.0311;;;;
2019/09/04 06:08:22;;;;;;;7.5;5.3;;;;;;;13.45;79.50195;964.0602;;;;
2019/09/04 06:10:47;;;;;;;8.9;5.5;;;;;;;13.56;78.84961;964.0464;;;;
2019/09/04 06:13:12;;;;;;;8.1;5.2;;;;;;;13.72;78.91211;964.0396;;;;
2019/09/04 06:15:37;;;;;;;8.8;5.2;;;;;;;13.72;78.37891;963.938;;;;
2019/09/04 06:18:02;;;;;;;11.1;5.3;;;;;;;13.74;79.23047;963.8917;;;;
2019/09/04 06:20:28;;;;;;;7.3;5;;;;;;;13.92;78.56641;963.9563;;;;
2019/09/04 06:22:53;;;;;;;10.1;5.3;;;;;;;14.05;78.25488;963.9578;;;;
2019/09/04 06:25:18;;;;;;;9;5.5;;;;;;;14.06;78.15039;963.9186;;;;
2019/09/04 06:27:43;;;;;;;8.3;5.1;;;;;;;14.23;77.27734;963.8789;;;;
2019/09/04 06:30:08;;;;;;;10.6;5.6;;;;;;;14.26;77.31641;963.9473;;;;
2019/09/04 06:32:33;;;;;;;7.2;4.9;;;;;;;14.34;77.09863;963.9705;;;;
2019/09/04 06:34:58;;;;;;;8.3;5.5;;;;;;;14.46;77.00293;963.9694;;;;
2019/09/04 06:37:23;;;;;;;7;4.8;;;;;;;14.54;76.86816;964.0289;;;;
2019/09/04 06:39:48;;;;;;;10.5;5.5;;;;;;;14.69;75.99805;963.9565;;;;
2019/09/04 06:42:13;;;;;;;8.5;5.5;;;;;;;14.72;75.17969;963.9668;;;;
2019/09/04 06:44:39;;;;;;;7.5;5.2;;;;;;;14.84;75.93066;963.9991;;;;
2019/09/04 06:47:04;;;;;;;8.3;5.2;;;;;;;14.94;74.07715;964.0123;;;;
2019/09/04 06:49:29;;;;;;;8.1;5;;;;;;;15.11;73.59473;963.9606;;;;
2019/09/04 06:51:54;;;;;;;9;5.7;;;;;;;14.99;74.70313;963.9997;;;;
2019/09/04 06:54:19;;;;;;;8.6;5.5;;;;;;;15.13;75.09668;963.981;;;;
2019/09/04 06:56:44;;;;;;;8.4;5.5;;;;;;;15.29;74.99805;963.9578;;;;
2019/09/04 06:59:10;;;;;;;9.5;6.2;;;;;;;15.33;73.78223;963.908;;;;
2019/09/04 07:01:35;;;;;;;9;5.8;;;;;;;15.45;73.89648;963.8842;;;;
2019/09/04 07:04:00;;;;;;;11.3;6.3;;;;;;;15.47;73.13281;963.8934;;;;
2019/09/04 07:06:25;;;;;;;11.1;6.6;;;;;;;15.44;73.89355;963.9105;;;;
2019/09/04 07:08:50;;;;;;;8.6;6.4;;;;;;;15.51;74.1748;963.9183;;;;
2019/09/04 07:11:16;;;;;;;12.6;6.6;;;;;;;15.53;73.02539;963.9095;;;;
2019/09/04 07:13:41;;;;;;;12.2;6.8;;;;;;;15.49;72.64648;963.8869;;;;
2019/09/04 07:16:06;;;;;;;10.7;6.5;;;;;;;15.56;73.39063;963.8859;;;;
2019/09/04 07:18:32;;;;;;;9.5;6.1;;;;;;;15.79;72.78906;963.9137;;;;
2019/09/04 07:20:57;;;;;;;11.8;7.3;;;;;;;15.65;75.03613;963.8651;;;;
2019/09/04 07:23:23;;;;;;;14.2;7.6;;;;;;;15.53;75.76074;963.8225;;;;
2019/09/04 07:25:48;;;;;;;12.5;7.3;;;;;;;15.56;73.53027;963.8078;;;;
2019/09/04 07:28:14;;;;;;;8.5;6.7;;;;;;;15.76;74.16895;963.8166;;;;
2019/09/04 07:30:39;;;;;;;11.3;7;;;;;;;15.97;73.40137;963.7659;;;;
2019/09/04 07:33:04;;;;;;;9.3;6.7;;;;;;;16.11;73.85645;963.7625;;;;
2019/09/04 07:35:30;;;;;;;11.8;6.6;;;;;;;16.14;73.17383;963.7108;;;;
2019/09/04 07:37:55;;;;;;;10.6;6.9;;;;;;;16.16;73.73633;963.697;;;;
2019/09/04 07:40:21;;;;;;;11.5;6.9;;;;;;;16.25;72.85156;963.699;;;;
2019/09/04 07:42:46;;;;;;;10;7.2;;;;;;;16.23;72.15039;963.6462;;;;
2019/09/04 07:45:12;;;;;;;10.5;6.9;;;;;;;16.24;71.12598;963.6132;;;;
2019/09/04 07:47:37;;;;;;;8.8;6.1;;;;;;;16.23;71.21777;963.6075;;;;
2019/09/04 07:50:03;;;;;;;10.7;6.9;;;;;;;16.3;72.5459;963.5706;;;;
2019/09/04 07:52:28;;;;;;;11.5;7.2;;;;;;;16.34;71.49316;963.5669;;;;
2019/09/04 07:54:53;;;;;;;10.2;6.5;;;;;;;16.49;71.42383;963.5467;;;;
2019/09/04 07:57:19;;;;;;;8;6.2;;;;;;;16.61;71.67773;963.486;;;;
2019/09/04 08:01:26;;;;;;;9.7;7.3;;;;;;;16.78;70.13965;963.4947;;;;
2019/09/04 08:03:51;;;;;;;11.5;7.4;;;;;;;16.57;71.54199;963.452;;;;
2019/09/04 08:06:16;;;;;;;11.9;6.8;;;;;;;16.62;71.03711;963.4497;;;;
2019/09/04 08:08:41;;;;;;;10.4;6.8;;;;;;;16.71;70.05957;963.4672;;;;
2019/09/04 08:11:06;;;;;;;11.3;6.2;;;;;;;16.83;70.62695;963.4396;;;;
2019/09/04 08:13:31;;;;;;;10.3;6.2;;;;;;;16.97;70.36914;963.4727;;;;
2019/09/04 08:15:57;;;;;;;9.5;5.3;;;;;;;17.05;70.29883;963.4514;;;;
2019/09/04 08:18:22;;;;;;;7.4;4.8;;;;;;;16.99;69.48438;963.4067;;;;
2019/09/04 08:20:47;;;;;;;7.7;4.8;;;;;;;17.07;69.84766;963.3549;;;;
2019/09/04 08:23:12;;;;;;;7;4.6;;;;;;;17.06;69.23926;963.3533;;;;
2019/09/04 08:25:37;;;;;;;7.8;4.7;;;;;;;17.04;69.38672;963.2726;;;;
2019/09/04 08:28:02;;;;;;;6.5;4.8;;;;;;;17.13;69.54102;963.2947;;;;
2019/09/04 08:30:27;;;;;;;7.8;4.2;;;;;;;17.27;68.90918;963.3103;;;;
2019/09/04 08:32:52;;;;;;;6.9;4.5;;;;;;;17.37;68.67871;963.3011;;;;
2019/09/04 08:35:17;;;;;;;6.4;3.9;;;;;;;17.53;67.89844;963.3248;;;;
2019/09/04 08:37:43;;;;;;;5.3;3.8;;;;;;;17.58;68.24316;963.2693;;;;
2019/09/04 08:40:08;;;;;;;4.7;3.4;;;;;;;17.6;67.52246;963.2711;;;;
2019/09/04 08:42:33;;;;;;;7;3.6;;;;;;;17.59;67.00684;963.2687;;;;
2019/09/04 08:44:58;;;;;;;6.3;3;;;;;;;17.62;65.61816;963.2514;;;;
2019/09/04 08:47:23;;;;;;;4.2;3.2;;;;;;;17.62;65.37305;963.242;;;;
2019/09/04 08:49:48;;;;;;;3.7;3.2;;;;;;;17.73;65.69336;963.1856;;;;
2019/09/04 08:52:13;;;;;;;5.6;3;;;;;;;17.85;64.99805;963.1386;;;;
2019/09/04 08:54:38;;;;;;;4.2;3;;;;;;;17.93;64.86914;963.1128;;;;
2019/09/04 08:57:03;;;;;;;6.6;3.6;;;;;;;17.98;63.75391;963.0467;;;;
2019/09/04 08:59:28;;;;;;;7.2;3.5;;;;;;;18;65.50098;963.0432;;;;
2019/09/04 09:01:53;;;;;;;7.1;3.7;;;;;;;17.99;63.54297;963.0219;;;;
2019/09/04 09:04:18;;;;;;;5.9;3.2;;;;;;;18.09;64.01367;963;;;;
2019/09/04 09:06:43;;;;;;;7.6;3.4;;;;;;;18.11;63.57422;962.9545;;;;
2019/09/04 09:09:09;;;;;;;6.4;3.5;;;;;;;18.18;65.02246;962.9384;;;;
2019/09/04 09:11:39;;;;;;;6.3;3.6;;;;;;;18.34;63.16113;962.8972;;;;
2019/09/04 09:13:59;;;;;;;5.9;3.1;;;;;;;18.48;61.7627;962.8699;;;;
2019/09/04 09:16:24;;;;;;;4.4;2.9;;;;;;;18.5;63.36035;962.8747;;;;
2019/09/04 09:18:49;;;;;;;6.8;4.6;;;;;;;18.59;62.89258;962.803;;;;
2019/09/04 09:21:14;;;;;;;5;3.4;;;;;;;18.6;61.93066;962.8656;;;;
2019/09/04 09:23:39;;;;;;;5.8;3.5;;;;;;;18.64;61.35156;962.8541;;;;
2019/09/04 09:26:04;;;;;;;5.2;4.1;;;;;;;18.79;60.31641;962.8739;;;;
2019/09/04 09:28:29;;;;;;;5.1;3.5;;;;;;;18.74;61.75195;962.7966;;;;
2019/09/04 09:30:54;;;;;;;4.1;2.7;;;;;;;18.91;58.98535;962.7654;;;;
2019/09/04 09:33:19;;;;;;;3.7;3;;;;;;;18.91;58.03516;962.7968;;;;
2019/09/04 09:35:45;;;;;;;4.4;2.9;;;;;;;18.97;58.79297;962.7378;;;;
2019/09/04 09:38:10;;;;;;;5.5;2.7;;;;;;;19.04;59.2002;962.7172;;;;
2019/09/04 09:40:35;;;;;;;4;2.7;;;;;;;19.06;59.64844;962.6519;;;;
2019/09/04 09:43:00;;;;;;;4.8;2.8;;;;;;;19;58.65527;962.6292;;;;
2019/09/04 09:45:25;;;;;;;6;3.1;;;;;;;19.2;58.86914;962.6247;;;;
2019/09/04 09:47:50;;;;;;;5.1;2.7;;;;;;;19.17;58.99512;962.5316;;;;
2019/09/04 09:50:15;;;;;;;4.9;3.1;;;;;;;19.11;59.7373;962.5769;;;;
2019/09/04 09:52:40;;;;;;;5.2;3;;;;;;;19.2;59.19824;962.5041;;;;
2019/09/04 09:55:05;;;;;;;5.1;3.3;;;;;;;19.28;59.00977;962.505;;;;
2019/09/04 09:57:30;;;;;;;5;2.9;;;;;;;19.29;59.46875;962.4411;;;;
2019/09/04 09:59:56;;;;;;;4.8;2.9;;;;;;;19.47;58.19043;962.4136;;;;
2019/09/04 10:02:21;;;;;;;5;2.3;;;;;;;19.47;57.78906;962.4178;;;;
2019/09/04 10:04:46;;;;;;;3.8;2.4;;;;;;;19.6;55.35156;962.385;;;;
2019/09/04 10:07:11;;;;;;;5.8;2.9;;;;;;;19.66;56.18164;962.4052;;;;
2019/09/04 10:09:36;;;;;;;4.1;2.5;;;;;;;19.57;58.26074;962.3615;;;;
2019/09/04 10:12:01;;;;;;;4.1;2.7;;;;;;;19.53;57.44531;962.2386;;;;
2019/09/04 10:14:27;;;;;;;4.1;2.8;;;;;;;19.76;55.53613;962.2419;;;;
2019/09/04 10:16:52;;;;;;;4.1;2.6;;;;;;;19.93;56.27441;962.2289;;;;
2019/09/04 10:19:17;;;;;;;4.6;2.6;;;;;;;19.87;56.31348;962.1536;;;;
2019/09/04 10:21:42;;;;;;;5.5;2.7;;;;;;;19.94;57.51074;962.1403;;;;
2019/09/04 10:24:07;;;;;;;3.4;2.6;;;;;;;19.92;57.53027;962.1454;;;;
2019/09/04 10:26:33;;;;;;;5;2.7;;;;;;;19.88;56.92773;962.0963;;;;
2019/09/04 10:28:58;;;;;;;8.2;2.7;;;;;;;19.94;56.74609;962.0542;;;;
2019/09/04 10:31:23;;;;;;;4.5;2.3;;;;;;;20.03;56.13477;961.9917;;;;
2019/09/04 10:33:48;;;;;;;3.4;2.4;;;;;;;20.16;55.22266;961.98;;;;
2019/09/04 10:36:13;;;;;;;4.2;3;;;;;;;20.28;54.10742;961.887;;;;
2019/09/04 10:38:39;;;;;;;4.7;2.6;;;;;;;20.25;54.9043;961.853;;;;
2019/09/04 10:41:04;;;;;;;4.1;2.3;;;;;;;20.33;53.54785;961.8176;;;;
2019/09/04 10:43:29;;;;;;;5.8;2.5;;;;;;;20.44;53.37305;961.7712;;;;
2019/09/04 10:45:55;;;;;;;4.2;2.2;;;;;;;20.26;53.45703;961.7203;;;;
2019/09/04 10:48:20;;;;;;;4.4;2.3;;;;;;;20.33;52.72461;961.7256;;;;
2019/09/04 10:50:45;;;;;;;4.9;2.5;;;;;;;20.33;51.79492;961.7142;;;;
2019/09/04 10:53:10;;;;;;;4.4;2.4;;;;;;;20.47;52.57617;961.698;;;;
2019/09/04 10:55:36;;;;;;;3.5;2.2;;;;;;;20.43;50.94727;961.7367;;;;
2019/09/04 10:58:01;;;;;;;4.3;2.1;;;;;;;20.5;53.0752;961.6741;;;;
2019/09/04 11:00:26;;;;;;;4.1;2.5;;;;;;;20.51;53.72363;961.6417;;;;
2019/09/04 11:02:51;;;;;;;5.8;2.5;;;;;;;20.58;53.35449;961.6102;;;;
2019/09/04 11:05:17;;;;;;;3.5;2.1;;;;;;;20.8;50.78906;961.579;;;;
2019/09/04 11:07:42;;;;;;;2.5;1.9;;;;;;;20.76;50.5498;961.5815;;;;
2019/09/04 11:10:07;;;;;;;3.1;2;;;;;;;20.79;49.82227;961.5492;;;;
2019/09/04 11:12:33;;;;;;;4;2.1;;;;;;;21;47.70117;961.5291;;;;
2019/09/04 11:14:58;;;;;;;3.1;1.9;;;;;;;20.99;48.87793;961.515;;;;
2019/09/04 11:17:23;;;;;;;5.5;1.8;;;;;;;20.91;49.94141;961.5009;;;;
2019/09/04 11:19:49;;;;;;;3.4;1.9;;;;;;;20.92;48.77539;961.4618;;;;
2019/09/04 11:22:14;;;;;;;3.1;1.9;;;;;;;21.02;49.43555;961.4141;;;;
2019/09/04 11:24:40;;;;;;;4.8;2;;;;;;;21.14;48.43457;961.3837;;;;
2019/09/04 11:27:05;;;;;;;6.1;2;;;;;;;21.35;48.68164;961.3738;;;;
2019/09/04 11:29:31;;;;;;;4;1.9;;;;;;;21.43;46.02539;961.2927;;;;
2019/09/04 11:31:56;;;;;;;2.3;1.7;;;;;;;21.45;45.61426;961.2653;;;;
2019/09/04 11:34:21;;;;;;;4.5;1.8;;;;;;;21.33;45.15234;961.2332;;;;
2019/09/04 11:36:46;;;;;;;4.5;1.9;;;;;;;21.25;44.83789;961.2067;;;;
2019/09/04 11:39:11;;;;;;;4.5;1.9;;;;;;;21.18;46.05762;961.218;;;;
2019/09/04 11:41:36;;;;;;;4.4;2;;;;;;;21.37;44.42578;961.1414;;;;
2019/09/04 11:44:01;;;;;;;3.6;1.9;;;;;;;21.36;45.15527;961.1188;;;;
2019/09/04 11:46:26;;;;;;;4.8;1.8;;;;;;;21.36;46.71289;961.0341;;;;
2019/09/04 11:48:52;;;;;;;3.2;1.6;;;;;;;21.5;45.48926;961.0524;;;;
2019/09/04 11:51:17;;;;;;;2.4;1.8;;;;;;;21.46;45.80371;960.9861;;;;
2019/09/04 11:53:42;;;;;;;2;1.5;;;;;;;21.64;44.79395;960.9716;;;;
2019/09/04 11:56:08;;;;;;;4.4;1.8;;;;;;;21.7;44.61133;961.0026;;;;
2019/09/04 11:58:33;;;;;;;2.3;1.6;;;;;;;21.74;43.99023;960.9361;;;;
2019/09/04 12:00:59;;;;;;;4.4;2;;;;;;;21.7;46.16992;960.9678;;;;
2019/09/04 12:03:24;;;;;;;2.3;1.7;;;;;;;22.03;44.00684;960.8448;;;;
2019/09/04 12:05:49;;;;;;;2.9;1.7;;;;;;;21.94;46.32617;960.8426;;;;
2019/09/04 12:08:15;;;;;;;3.5;2.1;;;;;;;21.98;45.16016;960.7817;;;;
2019/09/04 12:10:44;;;;;;;3.2;1.7;;;;;;;22.11;44.97266;960.8038;;;;
2019/09/04 12:13:10;;;;;;;4.6;1.9;;;;;;;22;45.43359;960.7764;;;;
2019/09/04 12:15:35;;;;;;;4.3;2;;;;;;;22.16;46.08789;960.7453;;;;
2019/09/04 12:18:01;;;;;;;3.4;2.1;;;;;;;22.39;42.53027;960.6359;;;;
2019/09/04 12:20:26;;;;;;;2.7;1.7;;;;;;;22.29;44.00977;960.6144;;;;
2019/09/04 12:22:51;;;;;;;4.4;2.1;;;;;;;22.2;44.47363;960.5892;;;;
2019/09/04 12:25:17;;;;;;;3.6;1.7;;;;;;;22.36;44.6084;960.5453;;;;
2019/09/04 12:27:43;;;;;;;3;1.7;;;;;;;22.55;42.1543;960.4997;;;;
2019/09/04 12:30:07;;;;;;;3;1.8;;;;;;;22.9;40.64941;960.481;;;;
2019/09/04 12:32:33;;;;;;;3.6;1.6;;;;;;;22.83;41.63672;960.4955;;;;
2019/09/04 12:34:58;;;;;;;4.5;1.8;;;;;;;22.77;42.22266;960.4381;;;;
2019/09/04 12:37:23;;;;;;;3;1.7;;;;;;;22.58;41.56543;960.3861;;;;
2019/09/04 12:39:48;;;;;;;3.6;1.7;;;;;;;22.59;43.15137;960.4042;;;;
2019/09/04 12:42:13;;;;;;;3.6;1.8;;;;;;;22.58;41.625;960.3702;;;;
2019/09/04 12:44:38;;;;;;;4.3;1.6;;;;;;;22.57;41.63672;960.3488;;;;
2019/09/04 12:47:03;;;;;;;3.8;1.7;;;;;;;22.66;42.6377;960.3763;;;;
2019/09/04 12:49:29;;;;;;;3.7;1.8;;;;;;;22.72;44.46582;960.3474;;;;
2019/09/04 12:51:54;;;;;;;3.1;1.5;;;;;;;22.68;44.49805;960.2845;;;;
2019/09/04 12:54:19;;;;;;;3.9;1.7;;;;;;;22.6;44.43066;960.2109;;;;
2019/09/04 12:56:44;;;;;;;4.1;1.5;;;;;;;22.68;44.58105;960.2444;;;;
2019/09/04 13:01:34;;;;;;;3.4;1.7;;;;;;;22.63;44.07813;960.1237;;;;
2019/09/04 13:03:59;;;;;;;2.4;1.4;;;;;;;22.82;43.37598;960.0984;;;;
2019/09/04 13:06:24;;;;;;;3.7;1.7;;;;;;;22.83;43.42383;960.09;;;;
2019/09/04 13:08:50;;;;;;;2.3;1.6;;;;;;;22.88;45.5;960.0942;;;;
2019/09/04 13:11:15;;;;;;;2.6;1.8;;;;;;;22.98;43.36816;960.0519;;;;
2019/09/04 13:13:41;;;;;;;3.6;1.7;;;;;;;22.98;44.10156;960.0396;;;;
2019/09/04 13:17:43;;;;;;;2.9;1.5;;;;;;;23;45.0498;959.9738;;;;
2019/09/04 13:20:08;;;;;;;2.6;1.6;;;;;;;23.23;43.67578;959.9113;;;;
2019/09/04 13:22:33;;;;;;;2;1.5;;;;;;;23.57;42.96289;959.8885;;;;
2019/09/04 13:24:59;;;;;;;4.3;1.5;;;;;;;23.92;39.93555;959.8734;;;;
2019/09/04 13:27:24;;;;;;;3.6;1.4;;;;;;;23.92;41.71484;959.8767;;;;
2019/09/04 13:29:49;;;;;;;2;1.3;;;;;;;23.67;41.77441;959.8178;;;;
2019/09/04 13:32:14;;;;;;;4.3;1.6;;;;;;;23.81;41.61035;959.7651;;;;
2019/09/04 13:34:39;;;;;;;3;1.5;;;;;;;23.82;40.76855;959.7651;;;;
2019/09/04 13:37:04;;;;;;;3.5;1.4;;;;;;;23.98;40.49805;959.7997;;;;
2019/09/04 13:39:29;;;;;;;2.8;1.3;;;;;;;23.98;40.46289;959.7481;;;;
2019/09/04 13:41:54;;;;;;;3.1;1.6;;;;;;;24.09;39.17871;959.7087;;;;
2019/09/04 13:44:19;;;;;;;1.7;1.3;;;;;;;23.99;40.22656;959.6577;;;;
2019/09/04 13:46:44;;;;;;;2.1;1.3;;;;;;;24.11;38.70605;959.627;;;;
2019/09/04 13:49:10;;;;;;;1.8;1.2;;;;;;;24.46;38.86719;959.68;;;;
2019/09/04 13:51:35;;;;;;;3.2;1.3;;;;;;;24.38;36.52051;959.6484;;;;
2019/09/04 13:54:00;;;;;;;2.6;1.4;;;;;;;24.2;37.23047;959.6106;;;;
2019/09/04 13:56:25;;;;;;;3.7;1.4;;;;;;;24.06;38.22754;959.5864;;;;
2019/09/04 13:58:50;;;;;;;2.9;1.5;;;;;;;24.06;37.98926;959.5829;;;;
2019/09/04 14:01:44;;;;;;;2.8;1.3;;;;;;;24.18;37.96387;959.5466;;;;
2019/09/04 14:04:09;;;;;;;2.7;1.3;;;;;;;24.17;40.1709;959.5084;;;;
2019/09/04 14:06:34;;;;;;;2.4;1.2;;;;;;;24.45;37.72559;959.4774;;;;
2019/09/04 14:08:59;;;;;;;3.9;1.4;;;;;;;24.64;37.39746;959.4202;;;;
2019/09/04 14:11:24;;;;;;;2.7;1.2;;;;;;;24.31;37.2627;959.4325;;;;
2019/09/04 14:13:49;;;;;;;2.9;1.2;;;;;;;24.11;37.3291;959.3706;;;;
2019/09/04 14:16:15;;;;;;;2.1;1.2;;;;;;;24.1;38.88281;959.396;;;;
2019/09/04 14:18:40;;;;;;;3.7;1.6;;;;;;;24.02;40.28906;959.3669;;;;
2019/09/04 14:21:05;;;;;;;1.6;1.3;;;;;;;24.02;39.16113;959.3563;;;;